Time;durP1;ratioP1;P1;durP2;ratioP2;P2;SDS_P1;SDS_P2;PMS_P1;PMS_P2;Temp;Humidity;BMP_temperature;BMP_pressure;BME280_temperature;BME280_humidity;BME280_pressure;Samples;Min_cycle;Max_cycle;Signal;HPM_P1;HPM_P2
2024/01/30 00:01:22;;;;;;;3.97;2.53;;;;;;;-6.13;89.81;101306.22;6192376;23;20048;-61
2024/01/30 00:03:53;;;;;;;5.55;2.22;;;;;;;-5.95;91.62;101302.38;6207557;23;20050;-60
2024/01/30 00:06:25;;;;;;;3.40;1.98;;;;;;;-5.75;93.41;101301.09;6192024;23;20028;-62
2024/01/30 00:08:55;;;;;;;2.40;1.77;;;;;;;-5.50;94.45;101308.66;6207085;23;20082;-60
2024/01/30 00:11:26;;;;;;;4.97;1.67;;;;;;;-5.25;94.37;101303.47;6192176;23;20028;-60
2024/01/30 00:13:58;;;;;;;2.38;1.70;;;;;;;-5.10;94.23;101295.06;6208046;23;20099;-61
2024/01/30 00:16:29;;;;;;;2.13;1.70;;;;;;;-4.99;93.50;101299.19;6192328;23;20024;-61
2024/01/30 00:19:02;;;;;;;6.72;2.10;;;;;;;-4.97;92.49;101287.38;6207022;23;20030;-61
2024/01/30 00:21:34;;;;;;;5.63;1.90;;;;;;;-4.90;91.79;101289.53;6191880;23;20032;-60
2024/01/30 00:24:04;;;;;;;3.45;1.70;;;;;;;-4.92;91.90;101286.00;6206885;23;20020;-60
2024/01/30 00:26:35;;;;;;;5.80;1.90;;;;;;;-4.94;91.61;101292.69;6192330;23;20020;-58
2024/01/30 00:29:05;;;;;;;3.75;1.70;;;;;;;-5.00;91.26;101303.38;6207316;23;20469;-61
2024/01/30 00:31:36;;;;;;;1.90;1.70;;;;;;;-5.04;90.36;101286.13;6192173;23;20032;-61
2024/01/30 00:34:10;;;;;;;7.93;2.00;;;;;;;-4.98;90.35;101295.81;6206834;23;20081;-60
2024/01/30 00:36:42;;;;;;;4.03;1.88;;;;;;;-4.86;89.90;101296.59;6191384;23;20027;-59
2024/01/30 00:39:13;;;;;;;2.53;1.75;;;;;;;-4.83;89.47;101286.56;6206779;23;20020;-60
2024/01/30 00:41:43;;;;;;;3.13;1.98;;;;;;;-4.86;88.42;101276.19;6191100;23;20446;-61
2024/01/30 00:44:13;;;;;;;2.67;1.77;;;;;;;-4.71;87.54;101286.47;6201209;23;20089;-59
2024/01/30 00:46:44;;;;;;;5.18;1.90;;;;;;;-4.60;88.47;101294.75;6207564;23;20076;-62
2024/01/30 00:49:14;;;;;;;4.68;1.90;;;;;;;-4.45;88.40;101295.69;6195607;23;20619;-61
2024/01/30 00:51:46;;;;;;;3.70;1.92;;;;;;;-4.42;86.60;101293.34;6206859;23;20031;-61
2024/01/30 00:54:17;;;;;;;2.95;1.80;;;;;;;-4.51;86.34;101304.66;6192169;23;20047;-59
2024/01/30 00:56:47;;;;;;;3.03;1.75;;;;;;;-4.53;86.86;101296.91;6207301;23;20059;-61
2024/01/30 00:59:18;;;;;;;5.05;1.73;;;;;;;-4.34;86.39;101302.31;6192244;23;20020;-61
2024/01/30 01:01:48;;;;;;;4.82;1.70;;;;;;;-4.06;85.98;101286.09;6208026;23;20024;-61
2024/01/30 01:04:19;;;;;;;4.03;1.77;;;;;;;-3.63;85.05;101303.91;6191749;23;20016;-59
2024/01/30 01:06:51;;;;;;;2.55;1.70;;;;;;;-3.42;83.39;101293.13;6207234;23;20015;-60
2024/01/30 01:09:21;;;;;;;3.35;2.20;;;;;;;-3.42;82.52;101285.47;6191767;23;20101;-58
2024/01/30 01:11:52;;;;;;;4.10;2.08;;;;;;;-3.33;80.85;101303.91;6206700;23;20023;-60
2024/01/30 01:14:22;;;;;;;2.63;1.80;;;;;;;-3.36;80.93;101298.63;6191306;23;20103;-62
2024/01/30 01:16:53;;;;;;;4.30;1.50;;;;;;;-3.87;80.65;101248.88;6207056;23;20082;-60
2024/01/30 01:19:23;;;;;;;3.08;1.67;;;;;;;-3.64;80.76;101302.16;6191442;23;20126;-61
2024/01/30 01:21:55;;;;;;;2.83;1.67;;;;;;;-3.58;80.47;101299.94;6206187;23;20095;-60
2024/01/30 01:24:25;;;;;;;4.53;1.92;;;;;;;-3.38;80.84;101292.53;6190652;23;20051;-61
2024/01/30 01:26:57;;;;;;;3.70;1.75;;;;;;;-3.30;79.78;101293.84;6206494;23;20738;-61
2024/01/30 01:29:28;;;;;;;3.60;1.70;;;;;;;-3.30;79.33;101302.38;6190970;23;20085;-60
2024/01/30 01:31:59;;;;;;;7.13;2.08;;;;;;;-3.36;78.67;101288.41;6206881;23;20028;-59
2024/01/30 01:34:30;;;;;;;2.70;1.40;;;;;;;-3.43;78.08;101281.16;6191195;23;20040;-59
2024/01/30 01:37:02;;;;;;;3.72;1.50;;;;;;;-3.54;78.25;101281.44;6206116;23;20235;-61
2024/01/30 01:39:33;;;;;;;2.70;1.60;;;;;;;-3.47;78.94;101270.78;6191198;23;20032;-61
2024/01/30 01:42:03;;;;;;;6.75;2.40;;;;;;;-3.39;78.90;101273.78;6206429;23;20054;-58
2024/01/30 01:44:33;;;;;;;4.95;1.70;;;;;;;-3.35;78.04;101268.00;6191490;23;20021;-61
2024/01/30 01:47:04;;;;;;;4.30;1.63;;;;;;;-3.25;77.73;101271.97;6206901;23;20102;-60
2024/01/30 01:49:34;;;;;;;5.18;1.73;;;;;;;-3.30;77.05;101265.72;6191500;23;20080;-61
2024/01/30 01:52:07;;;;;;;3.15;1.70;;;;;;;-3.30;76.59;101274.25;6205873;23;20024;-60
2024/01/30 01:54:38;;;;;;;4.10;1.52;;;;;;;-3.11;76.60;101259.97;6189916;23;20035;-60
2024/01/30 01:57:09;;;;;;;5.63;1.60;;;;;;;-2.92;76.44;101266.94;6205105;23;20020;-60
2024/01/30 01:59:39;;;;;;;4.15;1.60;;;;;;;-2.55;75.93;101263.78;6190692;23;20040;-61
2024/01/30 02:02:15;;;;;;;5.68;1.98;;;;;;;-2.35;74.81;101263.13;6206272;23;20051;-59
2024/01/30 02:04:47;;;;;;;4.43;1.70;;;;;;;-2.10;74.49;101262.69;6191380;23;20030;-60
2024/01/30 02:07:19;;;;;;;3.90;1.50;;;;;;;-1.93;71.90;101263.56;6191387;23;20066;-60
2024/01/30 02:09:50;;;;;;;4.10;1.80;;;;;;;-1.96;71.98;101258.28;6206107;23;20028;-58
2024/01/30 02:12:20;;;;;;;4.15;1.60;;;;;;;-1.98;71.69;101259.88;6191124;23;20020;-61
2024/01/30 02:14:51;;;;;;;4.43;1.70;;;;;;;-2.10;71.10;101259.28;6205886;23;20016;-59
2024/01/30 02:17:23;;;;;;;4.47;1.75;;;;;;;-2.14;71.67;101252.25;6190431;23;20051;-58
2024/01/30 02:19:54;;;;;;;3.08;1.63;;;;;;;-2.19;71.60;101234.97;6205868;23;20062;-60
2024/01/30 02:22:26;;;;;;;1.63;1.52;;;;;;;-2.15;70.13;101245.34;6190506;23;20062;-61
2024/01/30 02:24:57;;;;;;;3.65;1.60;;;;;;;-2.03;70.28;101235.72;6205458;23;20095;-60
2024/01/30 02:27:27;;;;;;;6.80;1.83;;;;;;;-2.03;68.98;101238.28;6190438;23;20020;-60
2024/01/30 02:29:57;;;;;;;3.72;1.73;;;;;;;-2.13;68.57;101229.25;6205220;23;20365;-58
2024/01/30 02:32:28;;;;;;;4.75;1.75;;;;;;;-1.99;69.36;101235.09;6190473;23;20472;-60
2024/01/30 02:34:58;;;;;;;5.50;1.77;;;;;;;-2.12;70.05;101225.00;6206103;23;20020;-58
2024/01/30 02:37:30;;;;;;;5.32;1.95;;;;;;;-2.43;69.25;101241.38;6190860;23;20162;-60
2024/01/30 02:40:01;;;;;;;5.75;1.95;;;;;;;-2.56;69.54;101237.31;6205715;23;20107;-60
2024/01/30 02:42:31;;;;;;;3.97;2.00;;;;;;;-2.48;70.30;101227.47;6190680;23;20449;-60
2024/01/30 02:45:02;;;;;;;2.67;1.60;;;;;;;-2.50;69.71;101227.38;6205442;23;20043;-60
2024/01/30 02:47:32;;;;;;;7.53;2.33;;;;;;;-2.57;69.24;101229.53;6190559;23;20430;-59
2024/01/30 02:50:02;;;;;;;4.45;2.10;;;;;;;-2.69;69.01;101217.91;6205936;23;20103;-61
2024/01/30 02:52:35;;;;;;;3.10;1.83;;;;;;;-2.59;68.75;101220.94;6190862;23;20025;-59
2024/01/30 02:55:06;;;;;;;7.93;2.17;;;;;;;-2.62;68.71;101219.97;6205267;23;20507;-60
2024/01/30 02:57:37;;;;;;;4.32;1.98;;;;;;;-2.71;69.32;101214.38;6190561;23;20020;-59
2024/01/30 03:00:09;;;;;;;5.65;2.20;;;;;;;-2.70;69.31;101213.56;6205649;23;20507;-57
2024/01/30 03:02:39;;;;;;;3.65;2.00;;;;;;;-2.50;69.70;101211.16;6189996;23;20028;-60
2024/01/30 03:05:10;;;;;;;3.70;1.90;;;;;;;-2.61;69.49;101203.81;6206179;23;20035;-58
2024/01/30 03:07:42;;;;;;;6.03;2.33;;;;;;;-2.69;69.68;101205.09;6190635;23;20020;-58
2024/01/30 03:10:13;;;;;;;3.38;1.60;;;;;;;-2.73;70.23;101203.16;6205492;23;20020;-60
2024/01/30 03:12:43;;;;;;;7.70;2.17;;;;;;;-2.77;70.39;101191.03;6189482;23;20020;-58
2024/01/30 03:15:14;;;;;;;4.20;2.13;;;;;;;-2.75;70.26;101196.22;6196932;23;20098;-60
2024/01/30 03:17:44;;;;;;;7.80;2.08;;;;;;;-2.75;70.68;101188.53;6205107;23;20016;-60
2024/01/30 03:20:15;;;;;;;5.85;2.08;;;;;;;-2.63;70.06;101195.16;6189794;23;20020;-60
2024/01/30 03:22:47;;;;;;;4.30;2.30;;;;;;;-2.57;70.61;101184.41;6206345;23;20031;-60
2024/01/30 03:25:18;;;;;;;2.47;1.80;;;;;;;-2.42;71.02;101189.38;6190953;23;20046;-59
2024/01/30 03:27:48;;;;;;;4.03;1.90;;;;;;;-2.65;71.09;101191.66;6205735;23;20055;-60
2024/01/30 03:30:19;;;;;;;4.25;1.98;;;;;;;-2.87;71.81;101187.13;6189862;23;20028;-57
2024/01/30 03:32:50;;;;;;;6.45;2.00;;;;;;;-2.93;71.93;101191.03;6204595;23;20026;-58
2024/01/30 03:35:21;;;;;;;5.78;2.22;;;;;;;-3.13;72.52;101188.28;6190634;23;20024;-58
2024/01/30 03:37:53;;;;;;;5.97;2.50;;;;;;;-3.13;73.71;101185.72;6206267;23;20626;-58
2024/01/30 03:40:23;;;;;;;5.95;2.25;;;;;;;-3.13;74.18;101190.84;6186353;23;20056;-59
2024/01/30 03:42:54;;;;;;;7.47;2.55;;;;;;;-3.13;74.04;101190.84;6201783;23;20028;-59
2024/01/30 03:45:24;;;;;;;6.85;2.13;;;;;;;-3.10;74.20;101175.66;6188184;23;20028;-59
2024/01/30 03:47:55;;;;;;;3.05;2.05;;;;;;;-3.20;74.88;101187.88;6203591;23;20107;-58
2024/01/30 03:50:25;;;;;;;4.60;2.10;;;;;;;-3.21;75.78;101176.78;6186323;23;20052;-59
2024/01/30 03:52:57;;;;;;;5.85;2.20;;;;;;;-3.21;76.19;101176.78;6203451;23;20040;-59
2024/01/30 03:55:28;;;;;;;3.20;2.10;;;;;;;-3.28;74.83;101179.78;6186978;23;20504;-58
2024/01/30 03:57:58;;;;;;;6.60;2.45;;;;;;;-3.22;75.56;101175.03;6200654;23;20020;-59
2024/01/30 04:00:29;;;;;;;7.20;2.67;;;;;;;-3.21;75.60;101183.56;6187406;23;20020;-59
2024/01/30 04:02:59;;;;;;;6.75;2.25;;;;;;;-3.08;76.22;101183.41;6201402;23;20098;-59
2024/01/30 04:05:30;;;;;;;4.20;2.05;;;;;;;-3.07;76.05;101186.06;6186745;23;20016;-59
2024/01/30 04:08:02;;;;;;;9.45;2.55;;;;;;;-3.05;76.19;101189.56;6202822;23;20048;-59
2024/01/30 04:10:32;;;;;;;6.40;2.40;;;;;;;-2.94;76.39;101187.59;6187277;23;20101;-59
2024/01/30 04:13:03;;;;;;;5.78;2.55;;;;;;;-2.89;76.71;101185.28;6202360;23;20020;-58
2024/01/30 04:15:33;;;;;;;4.85;2.10;;;;;;;-2.71;75.93;101186.22;6187623;23;20063;-58
2024/01/30 04:18:04;;;;;;;5.20;2.30;;;;;;;-2.49;76.30;101187.34;6202491;23;20055;-59
2024/01/30 04:20:34;;;;;;;4.57;2.20;;;;;;;-2.29;75.92;101186.66;6187467;23;20028;-59
2024/01/30 04:23:07;;;;;;;3.08;1.73;;;;;;;-2.42;75.64;101189.38;6202588;23;20447;-59
2024/01/30 04:25:38;;;;;;;5.50;2.20;;;;;;;-2.62;77.14;101196.06;6186758;23;20496;-60
2024/01/30 04:28:08;;;;;;;8.57;2.50;;;;;;;-2.92;78.42;101195.31;6201832;23;20054;-59
2024/01/30 04:30:39;;;;;;;6.13;2.20;;;;;;;-3.19;79.56;101187.09;6187583;23;20024;-60
2024/01/30 04:33:09;;;;;;;6.30;2.38;;;;;;;-3.44;80.60;101187.41;6202837;23;20020;-59
2024/01/30 04:35:40;;;;;;;6.10;2.08;;;;;;;-3.54;80.64;101192.03;6187133;23;20050;-59
2024/01/30 04:38:12;;;;;;;4.40;1.92;;;;;;;-3.76;80.97;101194.19;6203058;23;20047;-59
2024/01/30 04:40:42;;;;;;;6.30;2.40;;;;;;;-3.94;82.59;101192.34;6188343;23;20020;-59
2024/01/30 04:43:13;;;;;;;2.10;1.65;;;;;;;-4.10;83.22;101187.16;6203737;23;20322;-57
2024/01/30 04:45:43;;;;;;;4.90;2.70;;;;;;;-4.29;86.20;101200.53;6204179;23;20040;-59
2024/01/30 04:48:14;;;;;;;4.60;2.00;;;;;;;-4.40;87.61;101202.44;6196171;23;20123;-59
2024/01/30 04:50:44;;;;;;;6.35;2.70;;;;;;;-4.43;88.97;101194.63;6204002;23;20056;-59
2024/01/30 04:53:16;;;;;;;6.85;2.60;;;;;;;-4.57;89.53;101203.13;6189248;23;20044;-59
2024/01/30 04:55:47;;;;;;;5.68;2.40;;;;;;;-4.65;89.63;101201.78;6205189;23;20658;-58
2024/01/30 04:58:17;;;;;;;5.85;2.78;;;;;;;-4.75;89.62;101207.13;6189706;23;20390;-58
2024/01/30 05:00:51;;;;;;;5.97;2.50;;;;;;;-4.85;89.62;101211.66;6204203;23;20710;-59
2024/01/30 05:03:23;;;;;;;6.07;2.80;;;;;;;-5.21;89.13;101147.47;6189604;23;20077;-58
2024/01/30 05:05:54;;;;;;;7.18;2.80;;;;;;;-4.93;89.21;101206.91;6203883;23;20039;-58
2024/01/30 05:08:26;;;;;;;4.13;2.40;;;;;;;-4.86;89.50;101215.00;6188942;23;20023;-59
2024/01/30 05:10:56;;;;;;;5.43;3.00;;;;;;;-4.84;89.33;101216.00;6204299;23;20020;-59
2024/01/30 05:13:27;;;;;;;7.80;2.97;;;;;;;-4.77;89.31;101230.88;6188366;23;20119;-58
2024/01/30 05:15:57;;;;;;;5.28;2.72;;;;;;;-4.66;88.60;101223.00;6203716;23;20020;-59
2024/01/30 05:18:28;;;;;;;6.53;3.20;;;;;;;-4.66;86.68;101231.50;6188509;23;20028;-58
2024/01/30 05:20:58;;;;;;;6.93;3.00;;;;;;;-4.62;86.47;101230.91;6202135;23;20062;-58
2024/01/30 05:23:30;;;;;;;5.95;3.13;;;;;;;-4.75;86.26;101230.06;6188803;23;20031;-59
2024/01/30 05:26:02;;;;;;;6.38;3.15;;;;;;;-4.99;87.20;101238.88;6204205;23;20082;-59
2024/01/30 05:28:32;;;;;;;6.68;3.42;;;;;;;-5.02;88.18;101242.88;6188569;23;20032;-59
2024/01/30 05:31:03;;;;;;;7.50;3.25;;;;;;;-5.05;88.14;101237.59;6203686;23;20747;-58
2024/01/30 05:33:33;;;;;;;6.38;3.78;;;;;;;-5.04;88.41;101249.56;6188747;23;20025;-58
2024/01/30 05:36:04;;;;;;;6.68;3.40;;;;;;;-5.10;88.88;101249.19;6203869;23;20633;-58
2024/01/30 05:38:39;;;;;;;4.95;3.35;;;;;;;-5.18;89.40;101252.94;6188900;23;20062;-57
2024/01/30 05:41:11;;;;;;;7.20;4.07;;;;;;;-5.25;90.23;101255.06;6204120;23;20047;-58
2024/01/30 05:43:43;;;;;;;5.68;3.95;;;;;;;-5.24;90.56;101259.41;6188441;23;20020;-57
2024/01/30 05:46:13;;;;;;;6.57;3.75;;;;;;;-5.20;90.28;101263.00;6196779;23;20111;-58
2024/01/30 05:48:44;;;;;;;7.38;3.75;;;;;;;-5.27;89.66;101269.38;6203436;23;20461;-58
2024/01/30 05:51:15;;;;;;;9.50;4.40;;;;;;;-5.34;89.40;101267.25;6188365;23;20055;-57
2024/01/30 05:53:47;;;;;;;6.95;4.07;;;;;;;-5.35;89.56;101273.13;6203202;23;20111;-58
2024/01/30 05:56:17;;;;;;;7.82;4.03;;;;;;;-5.38;89.28;101277.16;6188551;23;20027;-58
2024/01/30 05:58:47;;;;;;;12.00;4.90;;;;;;;-5.40;89.66;101284.69;6204349;23;20016;-58
2024/01/30 06:01:18;;;;;;;8.55;5.15;;;;;;;-5.41;89.84;101277.84;6188745;23;20054;-58
2024/01/30 06:03:48;;;;;;;9.25;4.70;;;;;;;-5.47;89.64;101264.69;6203950;23;20054;-59
2024/01/30 06:06:19;;;;;;;8.85;5.03;;;;;;;-5.33;89.86;101285.97;6188449;23;20024;-58
2024/01/30 06:08:51;;;;;;;12.27;5.60;;;;;;;-5.17;89.97;101281.03;6204215;23;20027;-57
2024/01/30 06:11:21;;;;;;;9.23;4.82;;;;;;;-5.12;89.05;101281.31;6188466;23;20322;-58
2024/01/30 06:13:52;;;;;;;12.77;5.30;;;;;;;-5.06;89.45;101291.94;6203704;23;20016;-57
2024/01/30 06:16:22;;;;;;;10.48;5.35;;;;;;;-5.02;88.84;101296.41;6187851;23;20134;-56
2024/01/30 06:18:53;;;;;;;11.05;5.88;;;;;;;-5.10;88.37;101300.16;6203443;23;20386;-57
2024/01/30 06:21:24;;;;;;;13.07;5.60;;;;;;;-5.28;87.45;101305.84;6188070;23;20515;-57
2024/01/30 06:23:56;;;;;;;9.93;4.82;;;;;;;-5.53;87.20;101302.50;6203145;23;20106;-58
2024/01/30 06:26:26;;;;;;;10.02;5.13;;;;;;;-5.70;87.67;101304.81;6187249;23;20660;-58
2024/01/30 06:28:56;;;;;;;11.38;5.55;;;;;;;-5.84;87.99;101310.69;6203592;23;20457;-58
2024/01/30 06:31:27;;;;;;;10.75;5.47;;;;;;;-5.91;88.75;101321.25;6187895;23;20489;-57
2024/01/30 06:33:58;;;;;;;11.50;5.72;;;;;;;-5.97;88.85;101324.28;6203579;23;20333;-58
2024/01/30 06:36:28;;;;;;;13.70;5.60;;;;;;;-6.01;89.04;101319.78;6188210;23;20078;-57
2024/01/30 06:39:00;;;;;;;14.77;5.80;;;;;;;-5.94;89.44;101323.59;6203374;23;20637;-58
2024/01/30 06:41:30;;;;;;;11.65;5.85;;;;;;;-6.01;89.53;101324.00;6188797;23;20034;-57
2024/01/30 06:44:01;;;;;;;12.07;5.78;;;;;;;-5.94;90.45;101331.22;6203845;23;20019;-57
2024/01/30 06:46:32;;;;;;;11.40;5.65;;;;;;;-5.90;90.55;101328.09;6188219;23;20103;-57
2024/01/30 06:49:02;;;;;;;7.57;5.32;;;;;;;-6.15;89.47;101333.22;6202604;23;20023;-56
2024/01/30 06:51:33;;;;;;;9.63;5.22;;;;;;;-6.45;90.06;101337.09;6188246;23;20100;-57
2024/01/30 06:54:05;;;;;;;12.57;6.43;;;;;;;-6.70;90.43;101337.94;6202839;23;20095;-57
2024/01/30 06:56:36;;;;;;;13.50;4.88;;;;;;;-6.91;91.00;101338.97;6187745;23;20047;-57
2024/01/30 06:59:06;;;;;;;15.75;6.88;;;;;;;-7.06;91.45;101334.56;6203628;23;20515;-57
2024/01/30 07:01:36;;;;;;;12.85;6.57;;;;;;;-7.10;91.42;101347.81;6187585;23;20115;-57
2024/01/30 07:04:07;;;;;;;12.23;6.50;;;;;;;-7.07;91.99;101363.28;6202433;23;20408;-57
2024/01/30 07:06:37;;;;;;;16.13;7.55;;;;;;;-7.03;92.31;101354.25;6187666;23;20028;-57
2024/01/30 07:09:10;;;;;;;17.67;7.25;;;;;;;-7.11;91.69;101351.16;6202557;23;20035;-57
2024/01/30 07:11:40;;;;;;;17.25;7.47;;;;;;;-7.03;91.20;101372.91;6186733;23;20115;-57
2024/01/30 07:14:11;;;;;;;16.92;8.10;;;;;;;-7.15;90.38;101364.38;6203293;23;20107;-57
2024/01/30 07:16:42;;;;;;;16.60;7.75;;;;;;;-7.29;90.10;101375.19;6187456;23;20028;-58
2024/01/30 07:19:12;;;;;;;17.77;8.75;;;;;;;-7.32;90.07;101374.97;6202927;23;20052;-57
2024/01/30 07:21:43;;;;;;;25.75;9.70;;;;;;;-7.24;90.53;101379.88;6187579;23;20055;-57
2024/01/30 07:24:15;;;;;;;15.40;8.95;;;;;;;-7.13;90.14;101378.09;6198315;23;20020;-57
2024/01/30 07:26:45;;;;;;;16.23;8.57;;;;;;;-7.11;90.09;101381.63;6202839;23;20480;-57
2024/01/30 07:29:16;;;;;;;19.25;8.82;;;;;;;-7.06;89.86;101382.84;6187340;23;20098;-57
2024/01/30 07:31:46;;;;;;;21.45;8.75;;;;;;;-7.06;89.30;101385.38;6203443;23;20047;-57
2024/01/30 07:34:17;;;;;;;18.23;9.40;;;;;;;-6.97;88.77;101400.38;6187258;23;20507;-57
2024/01/30 07:36:47;;;;;;;20.25;9.70;;;;;;;-6.99;88.25;101381.59;6203292;23;20034;-58
2024/01/30 07:39:20;;;;;;;24.13;10.98;;;;;;;-7.10;86.98;101393.53;6185734;23;20020;-57
2024/01/30 07:41:50;;;;;;;24.25;10.05;;;;;;;-7.27;86.08;101388.91;6202048;23;20024;-57
2024/01/30 07:44:21;;;;;;;16.80;8.38;;;;;;;-7.40;84.94;101388.00;6187170;23;20074;-57
2024/01/30 07:46:51;;;;;;;17.02;9.25;;;;;;;-7.60;83.61;101385.66;6203455;23;20050;-57
2024/01/30 07:49:21;;;;;;;20.02;8.38;;;;;;;-7.65;82.51;101395.44;6187764;23;20043;-56
2024/01/30 07:51:52;;;;;;;22.10;9.07;;;;;;;-7.74;81.67;101404.03;6202916;23;20024;-56
2024/01/30 07:54:24;;;;;;;18.90;9.02;;;;;;;-8.05;80.84;101401.72;6187473;23;20020;-56
2024/01/30 07:56:55;;;;;;;16.70;8.82;;;;;;;-8.07;81.38;101403.25;6202354;23;20020;-56
2024/01/30 07:59:25;;;;;;;19.60;10.25;;;;;;;-7.90;83.92;101407.94;6187022;23;20024;-57
2024/01/30 08:01:55;;;;;;;18.08;9.55;;;;;;;-7.81;84.67;101408.66;6203096;23;20082;-57
2024/01/30 08:04:26;;;;;;;20.75;10.20;;;;;;;-7.72;84.21;101407.56;6187437;23;20020;-57
2024/01/30 08:06:57;;;;;;;23.40;10.60;;;;;;;-7.71;81.41;101419.47;6202778;23;20451;-57
2024/01/30 08:09:29;;;;;;;23.77;11.05;;;;;;;-7.77;79.30;101413.97;6187789;23;20028;-57
2024/01/30 08:11:59;;;;;;;25.52;10.95;;;;;;;-7.82;78.59;101417.03;6202191;23;20333;-57
2024/01/30 08:14:30;;;;;;;23.88;10.73;;;;;;;-7.91;76.14;101420.50;6188079;23;20028;-57
2024/01/30 08:17:00;;;;;;;17.60;10.23;;;;;;;-8.01;75.85;101429.09;6204591;23;20074;-56
2024/01/30 08:19:31;;;;;;;26.77;11.98;;;;;;;-8.06;76.54;101435.47;6189774;23;20032;-57
2024/01/30 08:22:01;;;;;;;21.25;10.68;;;;;;;-8.13;75.92;101433.22;6203604;23;20044;-57
2024/01/30 08:24:33;;;;;;;21.08;10.35;;;;;;;-8.26;74.08;101437.34;6189657;23;20476;-56
2024/01/30 08:27:05;;;;;;;20.13;10.30;;;;;;;-8.35;74.38;101441.69;6204466;23;20028;-57
2024/01/30 08:29:35;;;;;;;19.05;9.75;;;;;;;-8.47;73.69;101450.91;6188837;23;20024;-56
2024/01/30 08:32:07;;;;;;;24.67;10.80;;;;;;;-8.62;73.71;101454.78;6204226;23;20024;-57
2024/01/30 08:34:38;;;;;;;23.20;10.85;;;;;;;-8.68;73.16;101456.06;6189740;23;20840;-56
2024/01/30 08:37:08;;;;;;;24.30;10.48;;;;;;;-8.68;73.09;101461.13;6204016;23;20019;-57
2024/01/30 08:39:40;;;;;;;22.40;11.10;;;;;;;-8.71;73.59;101454.91;6188894;23;20471;-57
2024/01/30 08:42:11;;;;;;;27.55;10.98;;;;;;;-8.64;72.68;101466.44;6203529;23;20055;-57
2024/01/30 08:44:41;;;;;;;23.60;11.23;;;;;;;-8.66;72.58;101462.88;6187903;23;20078;-56
2024/01/30 08:47:12;;;;;;;22.70;11.40;;;;;;;-8.70;72.62;101462.63;6204420;23;20032;-57
2024/01/30 08:49:43;;;;;;;21.42;11.02;;;;;;;-8.80;72.21;101465.22;6188228;23;20789;-57
2024/01/30 08:52:14;;;;;;;25.05;12.45;;;;;;;-8.82;72.37;101466.72;6192536;23;20040;-56
2024/01/30 08:54:46;;;;;;;26.63;11.95;;;;;;;-8.84;72.74;101473.31;6203440;23;20035;-57
2024/01/30 08:57:17;;;;;;;22.25;11.95;;;;;;;-8.79;73.13;101472.03;6188656;23;20019;-57
2024/01/30 08:59:47;;;;;;;25.65;11.52;;;;;;;-8.91;72.72;101476.09;6204404;23;20357;-57
2024/01/30 09:02:18;;;;;;;23.88;11.70;;;;;;;-8.90;72.77;101488.03;6189098;23;20706;-57
2024/01/30 09:04:48;;;;;;;25.77;12.65;;;;;;;-8.93;72.40;101487.78;6204896;23;20055;-57
2024/01/30 09:07:19;;;;;;;26.02;12.95;;;;;;;-8.97;73.18;101489.16;6189645;23;20028;-56
2024/01/30 09:09:51;;;;;;;27.05;12.65;;;;;;;-8.95;72.97;101489.31;6204261;23;20066;-56
2024/01/30 09:12:22;;;;;;;23.73;12.30;;;;;;;-8.94;73.58;101486.88;6187810;23;20024;-57
2024/01/30 09:14:53;;;;;;;28.80;12.05;;;;;;;-8.92;73.87;101481.94;6203224;23;20510;-57
2024/01/30 09:17:23;;;;;;;31.45;13.68;;;;;;;-8.92;74.49;101484.47;6188500;23;20031;-56
2024/01/30 09:19:54;;;;;;;31.25;12.23;;;;;;;-8.93;74.70;101472.59;6203653;23;20044;-57
2024/01/30 09:22:24;;;;;;;26.00;11.55;;;;;;;-8.94;74.02;101486.00;6187219;23;20445;-56
2024/01/30 09:24:57;;;;;;;30.52;12.40;;;;;;;-8.99;73.62;101480.56;6203784;23;20024;-56
2024/01/30 09:27:27;;;;;;;26.92;12.77;;;;;;;-9.03;73.32;101480.22;6188437;23;20062;-57
2024/01/30 09:29:57;;;;;;;28.67;13.18;;;;;;;-9.20;73.80;101450.97;6201496;23;20020;-57
2024/01/30 09:32:28;;;;;;;27.33;12.60;;;;;;;-9.08;73.73;101476.38;6188597;23;20099;-56
2024/01/30 09:34:59;;;;;;;29.17;13.77;;;;;;;-9.09;73.70;101489.81;6203719;23;20027;-57
2024/01/30 09:37:29;;;;;;;27.35;13.57;;;;;;;-9.07;74.15;101494.25;6187918;23;20028;-56
2024/01/30 09:40:01;;;;;;;29.15;12.82;;;;;;;-9.38;72.74;101491.75;6203645;23;20028;-56
2024/01/30 09:42:36;;;;;;;26.10;12.45;;;;;;;-9.88;71.11;101490.00;6188067;23;20032;-56
2024/01/30 09:45:08;;;;;;;32.60;14.07;;;;;;;-10.13;71.97;101498.06;6202367;23;20028;-57
2024/01/30 09:47:43;;;;;;;32.03;14.73;;;;;;;-10.49;71.88;101496.66;6187693;23;20074;-56
2024/01/30 09:50:15;;;;;;;25.75;11.70;;;;;;;-10.75;71.89;101501.09;6189316;23;20103;-56
2024/01/30 09:52:46;;;;;;;31.15;12.95;;;;;;;-10.99;73.12;101495.63;6203743;23;20453;-56
2024/01/30 09:55:18;;;;;;;25.08;12.20;;;;;;;-11.15;73.84;101492.50;6188627;23;20311;-55
2024/01/30 09:57:49;;;;;;;28.73;12.18;;;;;;;-11.39;74.39;101507.19;6204148;23;20056;-56
2024/01/30 10:00:20;;;;;;;32.38;15.55;;;;;;;-11.61;76.49;101508.50;6188809;23;20024;-56
2024/01/30 10:02:50;;;;;;;27.40;13.95;;;;;;;-11.73;77.78;101494.03;6203822;23;20116;-56
2024/01/30 10:05:21;;;;;;;25.35;12.90;;;;;;;-11.67;79.04;101500.38;6188206;23;20016;-56
2024/01/30 10:07:59;;;;;;;25.75;11.93;;;;;;;-11.45;80.20;101496.53;6204225;23;20082;-56
2024/01/30 10:10:31;;;;;;;29.70;13.02;;;;;;;-11.07;81.27;101494.06;6188114;23;20098;-56
2024/01/30 10:13:01;;;;;;;26.50;13.57;;;;;;;-11.18;79.92;101488.06;6203088;23;20020;-56
2024/01/30 10:15:35;;;;;;;27.55;11.68;;;;;;;-11.14;79.57;101492.63;6188540;23;20043;-56
2024/01/30 10:18:06;;;;;;;28.38;13.23;;;;;;;-11.13;81.27;101496.00;6202787;23;20133;-56
2024/01/30 10:20:37;;;;;;;23.52;11.23;;;;;;;-11.26;80.18;101503.25;6187793;23;20020;-56
2024/01/30 10:23:08;;;;;;;29.45;12.55;;;;;;;-11.27;79.24;101511.56;6203380;23;20016;-56
2024/01/30 10:25:41;;;;;;;26.30;11.90;;;;;;;-11.43;78.51;101514.31;6187477;23;20325;-56
2024/01/30 10:28:12;;;;;;;36.78;15.27;;;;;;;-11.64;78.23;101508.22;6202440;23;20035;-56
2024/01/30 10:30:42;;;;;;;56.30;19.90;;;;;;;-11.72;77.62;101510.91;6187131;23;20078;-56
2024/01/30 10:33:13;;;;;;;42.50;17.45;;;;;;;-12.13;77.08;101523.84;6202015;23;20020;-56
2024/01/30 10:35:44;;;;;;;39.70;14.13;;;;;;;-12.32;77.21;101523.75;6187799;23;20035;-56
2024/01/30 10:38:17;;;;;;;41.47;15.38;;;;;;;-12.53;77.64;101527.63;6190753;23;20016;-55
2024/01/30 10:40:53;;;;;;;43.17;16.35;;;;;;;-12.87;78.37;101466.53;6203103;23;20078;-56
2024/01/30 10:43:24;;;;;;;27.50;13.48;;;;;;;-12.81;78.26;101512.41;6187776;23;20031;-55
2024/01/30 10:45:58;;;;;;;25.30;12.57;;;;;;;-13.11;77.33;101526.28;6203098;23;20028;-55
2024/01/30 10:48:34;;;;;;;22.08;11.63;;;;;;;-13.55;77.87;101540.47;6187903;23;20020;-55
2024/01/30 10:51:06;;;;;;;24.98;11.32;;;;;;;-13.69;79.49;101530.66;6202913;23;20024;-55
2024/01/30 10:53:37;;;;;;;23.63;12.98;;;;;;;-13.73;80.32;101538.59;6188007;23;20020;-55
2024/01/30 10:56:12;;;;;;;22.25;10.82;;;;;;;-13.85;80.65;101542.41;6203298;23;20031;-55
2024/01/30 10:58:42;;;;;;;25.35;13.18;;;;;;;-13.79;81.38;101533.84;6187864;23;20047;-55
2024/01/30 11:01:13;;;;;;;24.67;13.82;;;;;;;-13.82;81.30;101542.72;6201128;23;20389;-54
2024/01/30 11:03:44;;;;;;;114.60;27.85;;;;;;;-13.89;82.05;101540.31;6202673;23;20024;-54
2024/01/30 11:06:18;;;;;;;30.65;12.45;;;;;;;-14.15;81.92;101536.03;6188633;23;20046;-54
2024/01/30 11:09:02;;;;;;;44.15;17.38;;;;;;;-14.22;83.14;101533.66;6205384;23;20544;-54
2024/01/30 11:11:34;;;;;;;26.35;11.50;;;;;;;-14.31;83.70;101532.72;6188061;23;20107;-54
2024/01/30 11:14:04;;;;;;;27.48;13.82;;;;;;;-14.20;84.48;101532.16;6202929;23;20020;-54
2024/01/30 11:16:34;;;;;;;71.15;35.47;;;;;;;-14.37;84.52;101533.88;6187639;23;20435;-55
2024/01/30 11:19:05;;;;;;;29.08;13.20;;;;;;;-14.40;85.06;101530.13;6202521;23;20048;-55
2024/01/30 11:21:43;;;;;;;28.90;13.80;;;;;;;-14.45;85.18;101533.78;6187362;23;20020;-55
2024/01/30 11:24:16;;;;;;;37.03;13.20;;;;;;;-14.61;85.40;101526.34;6195415;23;20389;-54
2024/01/30 11:26:49;;;;;;;54.45;21.17;;;;;;;-14.75;85.34;101534.06;6201654;23;20373;-55
2024/01/30 11:29:19;;;;;;;105.55;44.25;;;;;;;-15.17;86.42;101473.66;6187863;23;20028;-54
2024/01/30 11:31:56;;;;;;;62.80;27.38;;;;;;;-14.86;87.06;101528.81;6203701;23;20024;-54
2024/01/30 11:34:28;;;;;;;25.08;12.80;;;;;;;-14.80;87.07;101539.50;6187119;23;20028;-55